sensor_id;sensor_type;location;lat;lon;timestamp;pressure;altitude;pressure_sealevel;temperature;humidity
48942;BME280;35340;52.378;4.648;2023-02-19T00:01:24;101811.78;;;16.81;63.86
48942;BME280;35340;52.378;4.648;2023-02-19T00:03:54;101810.94;;;16.82;64.06
48942;BME280;35340;52.378;4.648;2023-02-19T00:06:21;101812.66;;;16.80;63.72
48942;BME280;35340;52.378;4.648;2023-02-19T00:08:47;101813.50;;;16.80;64.09
48942;BME280;35340;52.378;4.648;2023-02-19T00:11:15;101811.75;;;16.79;63.53
48942;BME280;35340;52.378;4.648;2023-02-19T00:13:42;101810.94;;;16.82;64.14
48942;BME280;35340;52.378;4.648;2023-02-19T00:16:18;101802.25;;;16.80;63.97
48942;BME280;35340;52.378;4.648;2023-02-19T00:18:44;101805.72;;;16.80;64.06
48942;BME280;35340;52.378;4.648;2023-02-19T00:21:09;101812.66;;;16.80;63.80
48942;BME280;35340;52.378;4.648;2023-02-19T00:23:35;101811.78;;;16.81;63.84
48942;BME280;35340;52.378;4.648;2023-02-19T00:26:08;101813.53;;;16.82;63.83
48942;BME280;35340;52.378;4.648;2023-02-19T00:28:34;101816.97;;;16.81;64.18
48942;BME280;35340;52.378;4.648;2023-02-19T00:31:15;101823.91;;;16.80;64.06
48942;BME280;35340;52.378;4.648;2023-02-19T00:33:42;101829.09;;;16.80;63.82
48942;BME280;35340;52.378;4.648;2023-02-19T00:36:07;101829.97;;;16.81;63.96
48942;BME280;35340;52.378;4.648;2023-02-19T00:38:37;101836.91;;;16.80;63.96
48942;BME280;35340;52.378;4.648;2023-02-19T00:41:03;101824.75;;;16.79;63.78
48942;BME280;35340;52.378;4.648;2023-02-19T00:43:45;101829.97;;;16.81;63.83
48942;BME280;35340;52.378;4.648;2023-02-19T00:46:11;101830.84;;;16.80;63.69
48942;BME280;35340;52.378;4.648;2023-02-19T00:48:36;101835.16;;;16.79;63.70
48942;BME280;35340;52.378;4.648;2023-02-19T00:51:02;101829.97;;;16.81;63.86
48942;BME280;35340;52.378;4.648;2023-02-19T00:53:27;101838.63;;;16.80;64.09
48942;BME280;35340;52.378;4.648;2023-02-19T00:55:53;101825.66;;;16.80;63.92
48942;BME280;35340;52.378;4.648;2023-02-19T00:58:18;101829.09;;;16.79;63.47
48942;BME280;35340;52.378;4.648;2023-02-19T01:00:43;101825.66;;;16.80;63.92
48942;BME280;35340;52.378;4.648;2023-02-19T01:03:09;101838.63;;;16.80;63.87
48942;BME280;35340;52.378;4.648;2023-02-19T01:05:34;101835.13;;;16.78;63.82
48942;BME280;35340;52.378;4.648;2023-02-19T01:08:00;101839.47;;;16.79;64.06
48942;BME280;35340;52.378;4.648;2023-02-19T01:10:25;101840.34;;;16.79;64.03
48942;BME280;35340;52.378;4.648;2023-02-19T01:12:50;101836.88;;;16.79;63.87
48942;BME280;35340;52.378;4.648;2023-02-19T01:15:16;101843.84;;;16.80;63.83
48942;BME280;35340;52.378;4.648;2023-02-19T01:17:41;101845.53;;;16.79;63.97
48942;BME280;35340;52.378;4.648;2023-02-19T01:20:07;101842.06;;;16.79;63.85
48942;BME280;35340;52.378;4.648;2023-02-19T01:22:32;101840.31;;;16.78;63.93
48942;BME280;35340;52.378;4.648;2023-02-19T01:24:58;101847.28;;;16.79;63.89
48942;BME280;35340;52.378;4.648;2023-02-19T01:27:23;101849.88;;;16.79;64.16
48942;BME280;35340;52.378;4.648;2023-02-19T01:29:49;101846.38;;;16.78;63.52
48942;BME280;35340;52.378;4.648;2023-02-19T01:32:14;101845.53;;;16.78;63.48
48942;BME280;35340;52.378;4.648;2023-02-19T01:34:39;101849.88;;;16.79;63.64
48942;BME280;35340;52.378;4.648;2023-02-19T01:37:05;101854.19;;;16.78;63.67
48942;BME280;35340;52.378;4.648;2023-02-19T01:39:32;101855.06;;;16.79;63.78
48942;BME280;35340;52.378;4.648;2023-02-19T01:41:57;101843.78;;;16.78;63.60
48942;BME280;35340;52.378;4.648;2023-02-19T01:46:48;101846.38;;;16.78;63.46
48942;BME280;35340;52.378;4.648;2023-02-19T01:49:31;101849.84;;;16.77;63.62
48942;BME280;35340;52.378;4.648;2023-02-19T01:52:00;101852.47;;;16.79;63.83
48942;BME280;35340;52.378;4.648;2023-02-19T01:54:31;101855.06;;;16.79;63.29
48942;BME280;35340;52.378;4.648;2023-02-19T01:57:00;101860.28;;;16.79;63.56
48942;BME280;35340;52.378;4.648;2023-02-19T01:59:28;101869.78;;;16.78;63.42
48942;BME280;35340;52.378;4.648;2023-02-19T02:01:55;101865.44;;;16.77;63.83
48942;BME280;35340;52.378;4.648;2023-02-19T02:04:20;101860.25;;;16.77;63.64
48942;BME280;35340;52.378;4.648;2023-02-19T02:06:51;101861.97;;;16.78;63.43
48942;BME280;35340;52.378;4.648;2023-02-19T02:09:19;101868.91;;;16.78;63.23
48942;BME280;35340;52.378;4.648;2023-02-19T02:12:03;101859.38;;;16.77;63.50
48942;BME280;35340;52.378;4.648;2023-02-19T02:14:31;101864.59;;;16.77;63.21
48942;BME280;35340;52.378;4.648;2023-02-19T02:17:19;101859.38;;;16.77;63.53
48942;BME280;35340;52.378;4.648;2023-02-19T02:22:27;101873.25;;;16.77;63.28
48942;BME280;35340;52.378;4.648;2023-02-19T02:24:58;101870.63;;;16.76;63.40
48942;BME280;35340;52.378;4.648;2023-02-19T02:27:39;101867.19;;;16.77;63.49
48942;BME280;35340;52.378;4.648;2023-02-19T02:30:24;101869.78;;;16.77;63.67
48942;BME280;35340;52.378;4.648;2023-02-19T02:35:43;101864.59;;;16.77;63.36
48942;BME280;35340;52.378;4.648;2023-02-19T02:38:11;101870.63;;;16.76;63.34
48942;BME280;35340;52.378;4.648;2023-02-19T02:40:42;101875.81;;;16.76;63.06
48942;BME280;35340;52.378;4.648;2023-02-19T02:43:08;101875.81;;;16.76;63.76
48942;BME280;35340;52.378;4.648;2023-02-19T02:45:33;101879.28;;;16.75;63.07
48942;BME280;35340;52.378;4.648;2023-02-19T02:48:12;101866.28;;;16.75;63.20
48942;BME280;35340;52.378;4.648;2023-02-19T02:50:43;101872.34;;;16.75;63.24
48942;BME280;35340;52.378;4.648;2023-02-19T02:53:15;101880.16;;;16.75;63.47
48942;BME280;35340;52.378;4.648;2023-02-19T02:56:01;101882.75;;;16.75;63.34
48942;BME280;35340;52.378;4.648;2023-02-19T02:58:28;101885.34;;;16.75;63.09
48942;BME280;35340;52.378;4.648;2023-02-19T03:01:19;101894.00;;;16.74;63.02
48942;BME280;35340;52.378;4.648;2023-02-19T03:04:13;101894.00;;;16.74;63.26
48942;BME280;35340;52.378;4.648;2023-02-19T03:06:40;101893.16;;;16.75;63.19
48942;BME280;35340;52.378;4.648;2023-02-19T03:09:16;101893.13;;;16.74;62.83
48942;BME280;35340;52.378;4.648;2023-02-19T03:11:45;101895.72;;;16.74;63.24
48942;BME280;35340;52.378;4.648;2023-02-19T03:14:38;101913.09;;;16.75;63.07
48942;BME280;35340;52.378;4.648;2023-02-19T03:17:40;101904.38;;;16.74;63.37
48942;BME280;35340;52.378;4.648;2023-02-19T03:20:26;101902.66;;;16.73;63.01
48942;BME280;35340;52.378;4.648;2023-02-19T03:22:52;101903.53;;;16.74;62.50
48942;BME280;35340;52.378;4.648;2023-02-19T03:25:26;101900.06;;;16.73;62.87
48942;BME280;35340;52.378;4.648;2023-02-19T03:28:12;101909.59;;;16.73;62.97
48942;BME280;35340;52.378;4.648;2023-02-19T03:30:45;101895.72;;;16.74;62.79
48942;BME280;35340;52.378;4.648;2023-02-19T03:33:17;101904.41;;;16.73;62.78
48942;BME280;35340;52.378;4.648;2023-02-19T03:35:55;101908.72;;;16.74;62.92
48942;BME280;35340;52.378;4.648;2023-02-19T03:38:31;101913.91;;;16.74;62.84
48942;BME280;35340;52.378;4.648;2023-02-19T03:41:24;101913.06;;;16.73;63.01
48942;BME280;35340;52.378;4.648;2023-02-19T03:44:15;101918.25;;;16.73;62.83
48942;BME280;35340;52.378;4.648;2023-02-19T03:49:59;101917.38;;;16.73;62.98
48942;BME280;35340;52.378;4.648;2023-02-19T03:55:17;101924.31;;;16.74;63.01
48942;BME280;35340;52.378;4.648;2023-02-19T03:58:08;101921.69;;;16.72;62.56
48942;BME280;35340;52.378;4.648;2023-02-19T04:00:56;101939.03;;;16.73;62.78
48942;BME280;35340;52.378;4.648;2023-02-19T04:03:45;101942.47;;;16.72;62.67
48942;BME280;35340;52.378;4.648;2023-02-19T04:06:16;101946.84;;;16.73;62.58
48942;BME280;35340;52.378;4.648;2023-02-19T04:08:48;101945.97;;;16.73;62.68
48942;BME280;35340;52.378;4.648;2023-02-19T04:11:17;101945.09;;;16.72;62.49
48942;BME280;35340;52.378;4.648;2023-02-19T04:14:06;101945.09;;;16.72;62.63
48942;BME280;35340;52.378;4.648;2023-02-19T04:16:36;101961.56;;;16.73;62.70
48942;BME280;35340;52.378;4.648;2023-02-19T04:19:09;101959.81;;;16.72;62.32
48942;BME280;35340;52.378;4.648;2023-02-19T04:21:37;101964.19;;;16.73;62.82
48942;BME280;35340;52.378;4.648;2023-02-19T04:24:07;101968.47;;;16.72;62.36
48942;BME280;35340;52.378;4.648;2023-02-19T04:26:35;101975.41;;;16.72;62.67
48942;BME280;35340;52.378;4.648;2023-02-19T04:29:00;101981.47;;;16.72;62.50
48942;BME280;35340;52.378;4.648;2023-02-19T04:31:28;101987.56;;;16.73;62.49
48942;BME280;35340;52.378;4.648;2023-02-19T04:33:54;101997.06;;;16.72;62.29
48942;BME280;35340;52.378;4.648;2023-02-19T04:36:19;101998.81;;;16.72;62.48
48942;BME280;35340;52.378;4.648;2023-02-19T04:38:45;102003.13;;;16.71;62.66
48942;BME280;35340;52.378;4.648;2023-02-19T04:41:10;102004.88;;;16.72;62.44
48942;BME280;35340;52.378;4.648;2023-02-19T04:43:36;102004.00;;;16.72;62.28
48942;BME280;35340;52.378;4.648;2023-02-19T04:46:01;102017.00;;;16.72;62.31
48942;BME280;35340;52.378;4.648;2023-02-19T04:48:27;102013.53;;;16.71;62.15
48942;BME280;35340;52.378;4.648;2023-02-19T04:50:53;102013.53;;;16.71;62.29
48942;BME280;35340;52.378;4.648;2023-02-19T04:53:18;102016.13;;;16.71;62.47
48942;BME280;35340;52.378;4.648;2023-02-19T04:55:43;102024.78;;;16.72;62.10
48942;BME280;35340;52.378;4.648;2023-02-19T04:58:09;102029.13;;;16.71;62.21
48942;BME280;35340;52.378;4.648;2023-02-19T05:00:34;102023.06;;;16.71;62.13
48942;BME280;35340;52.378;4.648;2023-02-19T05:03:00;102032.59;;;16.72;62.16
48942;BME280;35340;52.378;4.648;2023-02-19T05:05:25;102039.53;;;16.71;62.21
48942;BME280;35340;52.378;4.648;2023-02-19T05:07:51;102038.66;;;16.71;62.02
48942;BME280;35340;52.378;4.648;2023-02-19T05:10:16;102041.25;;;16.71;62.10
48942;BME280;35340;52.378;4.648;2023-02-19T05:12:41;102038.66;;;16.72;62.22
48942;BME280;35340;52.378;4.648;2023-02-19T05:15:07;102041.25;;;16.72;62.33
48942;BME280;35340;52.378;4.648;2023-02-19T05:17:33;102040.41;;;16.73;62.27
48942;BME280;35340;52.378;4.648;2023-02-19T05:19:58;102050.81;;;16.73;62.04
48942;BME280;35340;52.378;4.648;2023-02-19T05:22:24;102051.69;;;16.74;62.48
48942;BME280;35340;52.378;4.648;2023-02-19T05:24:49;102042.16;;;16.74;62.18
48942;BME280;35340;52.378;4.648;2023-02-19T05:27:15;102044.75;;;16.74;62.12
48942;BME280;35340;52.378;4.648;2023-02-19T05:29:40;102056.03;;;16.75;62.16
48942;BME280;35340;52.378;4.648;2023-02-19T05:32:05;102054.31;;;16.75;62.26
48942;BME280;35340;52.378;4.648;2023-02-19T05:34:31;102051.72;;;16.75;61.89
48942;BME280;35340;52.378;4.648;2023-02-19T05:36:56;102057.78;;;16.76;62.29
48942;BME280;35340;52.378;4.648;2023-02-19T05:39:22;102053.44;;;16.75;61.70
48942;BME280;35340;52.378;4.648;2023-02-19T05:41:47;102062.13;;;16.75;61.95
48942;BME280;35340;52.378;4.648;2023-02-19T05:44:12;102062.13;;;16.75;62.08
48942;BME280;35340;52.378;4.648;2023-02-19T05:46:38;102069.91;;;16.75;61.89
48942;BME280;35340;52.378;4.648;2023-02-19T05:49:03;102069.03;;;16.75;61.62
48942;BME280;35340;52.378;4.648;2023-02-19T05:51:28;102066.44;;;16.76;61.80
48942;BME280;35340;52.378;4.648;2023-02-19T05:53:55;102075.97;;;16.76;61.85
48942;BME280;35340;52.378;4.648;2023-02-19T05:56:34;102079.44;;;16.76;61.67
48942;BME280;35340;52.378;4.648;2023-02-19T05:59:02;102089.00;;;16.77;61.55
48942;BME280;35340;52.378;4.648;2023-02-19T06:01:28;102090.75;;;16.77;61.95
48942;BME280;35340;52.378;4.648;2023-02-19T06:03:54;102086.41;;;16.77;61.94
48942;BME280;35340;52.378;4.648;2023-02-19T06:06:20;102095.06;;;16.78;61.67
48942;BME280;35340;52.378;4.648;2023-02-19T06:08:49;102099.41;;;16.77;61.86
48942;BME280;35340;52.378;4.648;2023-02-19T06:11:16;102099.41;;;16.77;61.50
48942;BME280;35340;52.378;4.648;2023-02-19T06:13:43;102106.34;;;16.77;61.70
48942;BME280;35340;52.378;4.648;2023-02-19T06:16:09;102114.13;;;16.78;61.84
48942;BME280;35340;52.378;4.648;2023-02-19T06:18:35;102108.94;;;16.78;61.68
48942;BME280;35340;52.378;4.648;2023-02-19T06:21:05;102108.94;;;16.78;61.72
48942;BME280;35340;52.378;4.648;2023-02-19T06:23:32;102106.34;;;16.78;61.97
48942;BME280;35340;52.378;4.648;2023-02-19T06:26:24;102115.03;;;16.79;61.93
48942;BME280;35340;52.378;4.648;2023-02-19T06:28:52;102108.94;;;16.78;61.59
48942;BME280;35340;52.378;4.648;2023-02-19T06:31:19;102110.69;;;16.79;61.67
48942;BME280;35340;52.378;4.648;2023-02-19T06:33:45;102118.50;;;16.79;61.74
48942;BME280;35340;52.378;4.648;2023-02-19T06:36:15;102109.88;;;16.80;62.07
48942;BME280;35340;52.378;4.648;2023-02-19T06:38:41;102122.00;;;16.80;61.66
48942;BME280;35340;52.378;4.648;2023-02-19T06:41:08;102127.19;;;16.80;61.79
48942;BME280;35340;52.378;4.648;2023-02-19T06:43:34;102129.78;;;16.80;61.77
48942;BME280;35340;52.378;4.648;2023-02-19T06:46:02;102128.06;;;16.80;62.11
48942;BME280;35340;52.378;4.648;2023-02-19T06:48:30;102133.25;;;16.80;61.74
48942;BME280;35340;52.378;4.648;2023-02-19T06:50:55;102138.47;;;16.80;61.83
48942;BME280;35340;52.378;4.648;2023-02-19T06:53:21;102148.84;;;16.80;61.96
48942;BME280;35340;52.378;4.648;2023-02-19T06:55:58;102157.53;;;16.81;61.69
48942;BME280;35340;52.378;4.648;2023-02-19T06:58:23;102159.25;;;16.80;61.91
48942;BME280;35340;52.378;4.648;2023-02-19T07:00:49;102161.88;;;16.82;61.83
48942;BME280;35340;52.378;4.648;2023-02-19T07:03:14;102174.88;;;16.82;61.97
48942;BME280;35340;52.378;4.648;2023-02-19T07:05:40;102180.94;;;16.82;61.95
48942;BME280;35340;52.378;4.648;2023-02-19T07:08:05;102178.34;;;16.82;61.97
48942;BME280;35340;52.378;4.648;2023-02-19T07:10:31;102188.75;;;16.82;61.88
48942;BME280;35340;52.378;4.648;2023-02-19T07:12:56;102187.03;;;16.83;62.02
48942;BME280;35340;52.378;4.648;2023-02-19T07:15:21;102193.13;;;16.83;61.97
48942;BME280;35340;52.378;4.648;2023-02-19T07:17:47;102203.53;;;16.83;62.09
48942;BME280;35340;52.378;4.648;2023-02-19T07:20:12;102206.97;;;16.84;62.02
48942;BME280;35340;52.378;4.648;2023-02-19T07:22:38;102208.72;;;16.85;61.77
48942;BME280;35340;52.378;4.648;2023-02-19T07:25:03;102209.59;;;16.84;62.03
48942;BME280;35340;52.378;4.648;2023-02-19T07:27:29;102211.34;;;16.86;62.13
48942;BME280;35340;52.378;4.648;2023-02-19T07:29:54;102220.03;;;16.85;62.13
48942;BME280;35340;52.378;4.648;2023-02-19T07:32:19;102220.88;;;16.86;62.25
48942;BME280;35340;52.378;4.648;2023-02-19T07:34:45;102216.56;;;16.86;62.26
48942;BME280;35340;52.378;4.648;2023-02-19T07:37:10;102228.72;;;16.88;62.47
48942;BME280;35340;52.378;4.648;2023-02-19T07:39:35;102233.03;;;16.87;62.22
48942;BME280;35340;52.378;4.648;2023-02-19T07:42:01;102236.53;;;16.88;62.23
48942;BME280;35340;52.378;4.648;2023-02-19T07:44:26;102242.59;;;16.88;62.44
48942;BME280;35340;52.378;4.648;2023-02-19T07:46:51;102243.44;;;16.89;62.49
48942;BME280;35340;52.378;4.648;2023-02-19T07:49:17;102240.00;;;16.88;62.32
48942;BME280;35340;52.378;4.648;2023-02-19T07:51:42;102235.66;;;16.89;62.29
48942;BME280;35340;52.378;4.648;2023-02-19T07:54:16;102246.09;;;16.90;62.41
48942;BME280;35340;52.378;4.648;2023-02-19T07:56:41;102245.22;;;16.91;62.42
48942;BME280;35340;52.378;4.648;2023-02-19T07:59:06;102253.03;;;16.91;62.42
48942;BME280;35340;52.378;4.648;2023-02-19T08:01:32;102263.41;;;16.91;62.37
48942;BME280;35340;52.378;4.648;2023-02-19T08:04:16;102269.50;;;16.92;62.26
48942;BME280;35340;52.378;4.648;2023-02-19T08:06:41;102263.41;;;16.91;62.24
48942;BME280;35340;52.378;4.648;2023-02-19T08:09:08;102253.03;;;16.91;62.43
48942;BME280;35340;52.378;4.648;2023-02-19T08:11:33;102251.28;;;16.92;62.66
48942;BME280;35340;52.378;4.648;2023-02-19T08:14:18;102260.00;;;16.92;62.19
48942;BME280;35340;52.378;4.648;2023-02-19T08:16:53;102268.66;;;16.93;62.33
48942;BME280;35340;52.378;4.648;2023-02-19T08:19:19;102274.72;;;16.93;62.23
48942;BME280;35340;52.378;4.648;2023-02-19T08:21:44;102285.25;;;17.01;61.64
48942;BME280;35340;52.378;4.648;2023-02-19T08:24:10;102292.34;;;17.11;61.19
48942;BME280;35340;52.378;4.648;2023-02-19T08:26:35;102289.88;;;17.19;60.96
48942;BME280;35340;52.378;4.648;2023-02-19T08:29:02;102290.88;;;17.27;60.16
48942;BME280;35340;52.378;4.648;2023-02-19T08:31:28;102303.88;;;17.28;60.13
48942;BME280;35340;52.378;4.648;2023-02-19T08:33:53;102291.75;;;17.31;60.11
48942;BME280;35340;52.378;4.648;2023-02-19T08:36:19;102296.13;;;17.33;60.04
48942;BME280;35340;52.378;4.648;2023-02-19T08:38:44;102293.53;;;17.33;60.00
48942;BME280;35340;52.378;4.648;2023-02-19T08:41:12;102275.31;;;17.33;60.23
48942;BME280;35340;52.378;4.648;2023-02-19T08:43:38;102285.72;;;17.33;59.93
48942;BME280;35340;52.378;4.648;2023-02-19T08:46:05;102292.66;;;17.33;60.15
48942;BME280;35340;52.378;4.648;2023-02-19T08:48:31;102302.25;;;17.35;59.91
48942;BME280;35340;52.378;4.648;2023-02-19T08:51:02;102301.38;;;17.35;60.06
48942;BME280;35340;52.378;4.648;2023-02-19T08:53:30;102297.94;;;17.36;59.60
48942;BME280;35340;52.378;4.648;2023-02-19T08:55:56;102289.22;;;17.35;59.85
48942;BME280;35340;52.378;4.648;2023-02-19T08:58:21;102294.59;;;17.44;59.69
48942;BME280;35340;52.378;4.648;2023-02-19T09:00:48;102310.19;;;17.43;59.68
48942;BME280;35340;52.378;4.648;2023-02-19T09:03:13;102318.84;;;17.43;59.43
48942;BME280;35340;52.378;4.648;2023-02-19T09:05:39;102325.00;;;17.48;59.33
48942;BME280;35340;52.378;4.648;2023-02-19T09:08:05;102328.41;;;17.46;59.93
48942;BME280;35340;52.378;4.648;2023-02-19T09:10:30;102332.75;;;17.45;60.17
48942;BME280;35340;52.378;4.648;2023-02-19T09:12:55;102336.22;;;17.46;60.44
48942;BME280;35340;52.378;4.648;2023-02-19T09:15:21;102342.31;;;17.45;60.67
48942;BME280;35340;52.378;4.648;2023-02-19T09:17:51;102355.34;;;17.46;60.77
48942;BME280;35340;52.378;4.648;2023-02-19T09:20:17;102370.09;;;17.47;61.07
48942;BME280;35340;52.378;4.648;2023-02-19T09:22:42;102370.09;;;17.47;61.38
48942;BME280;35340;52.378;4.648;2023-02-19T09:25:08;102370.97;;;17.48;61.39
48942;BME280;35340;52.378;4.648;2023-02-19T09:27:33;102385.75;;;17.49;61.70
48942;BME280;35340;52.378;4.648;2023-02-19T09:29:58;102385.75;;;17.49;61.87
48942;BME280;35340;52.378;4.648;2023-02-19T09:32:24;102388.38;;;17.52;61.92
48942;BME280;35340;52.378;4.648;2023-02-19T09:34:49;102393.66;;;17.55;61.63
48942;BME280;35340;52.378;4.648;2023-02-19T09:37:14;102390.22;;;17.58;61.83
48942;BME280;35340;52.378;4.648;2023-02-19T09:39:40;102404.97;;;17.59;61.60
48942;BME280;35340;52.378;4.648;2023-02-19T09:42:13;102402.38;;;17.59;61.55
48942;BME280;35340;52.378;4.648;2023-02-19T09:44:43;102401.53;;;17.61;61.81
48942;BME280;35340;52.378;4.648;2023-02-19T09:47:18;102406.78;;;17.63;61.79
48942;BME280;35340;52.378;4.648;2023-02-19T09:49:46;102412.00;;;17.64;61.92
48942;BME280;35340;52.378;4.648;2023-02-19T09:52:24;102418.94;;;17.65;61.70
48942;BME280;35340;52.378;4.648;2023-02-19T09:54:51;102432.91;;;17.69;61.48
48942;BME280;35340;52.378;4.648;2023-02-19T09:57:22;102428.56;;;17.69;61.48
48942;BME280;35340;52.378;4.648;2023-02-19T10:00:02;102428.56;;;17.69;61.34
48942;BME280;35340;52.378;4.648;2023-02-19T10:02:28;102438.09;;;17.69;61.66
48942;BME280;35340;52.378;4.648;2023-02-19T10:04:56;102438.94;;;17.68;61.69
48942;BME280;35340;52.378;4.648;2023-02-19T10:07:24;102446.75;;;17.68;61.63
48942;BME280;35340;52.378;4.648;2023-02-19T10:10:19;102461.50;;;17.66;61.71
48942;BME280;35340;52.378;4.648;2023-02-19T10:12:48;102456.31;;;17.67;61.76
48942;BME280;35340;52.378;4.648;2023-02-19T10:15:34;102469.31;;;17.67;61.95
48942;BME280;35340;52.378;4.648;2023-02-19T10:18:03;102471.91;;;17.67;61.90
48942;BME280;35340;52.378;4.648;2023-02-19T10:20:30;102485.81;;;17.68;62.00
48942;BME280;35340;52.378;4.648;2023-02-19T10:23:03;102478.06;;;17.71;62.05
48942;BME280;35340;52.378;4.648;2023-02-19T10:25:31;102481.53;;;17.72;62.19
48942;BME280;35340;52.378;4.648;2023-02-19T10:27:58;102490.22;;;17.72;62.21
48942;BME280;35340;52.378;4.648;2023-02-19T10:30:27;102492.03;;;17.75;62.05
48942;BME280;35340;52.378;4.648;2023-02-19T10:33:11;102483.31;;;17.74;62.26
48942;BME280;35340;52.378;4.648;2023-02-19T10:38:16;102500.69;;;17.77;62.54
48942;BME280;35340;52.378;4.648;2023-02-19T10:40:44;102496.41;;;17.77;62.65
48942;BME280;35340;52.378;4.648;2023-02-19T10:43:20;102492.03;;;17.75;62.59
48942;BME280;35340;52.378;4.648;2023-02-19T10:45:47;102483.25;;;17.69;62.58
48942;BME280;35340;52.378;4.648;2023-02-19T10:48:27;102485.81;;;17.68;62.48
48942;BME280;35340;52.378;4.648;2023-02-19T10:51:00;102480.59;;;17.68;62.35
48942;BME280;35340;52.378;4.648;2023-02-19T10:56:07;102491.91;;;17.70;62.31
48942;BME280;35340;52.378;4.648;2023-02-19T10:58:34;102504.06;;;17.69;62.49
48942;BME280;35340;52.378;4.648;2023-02-19T11:01:10;102508.44;;;17.71;62.00
48942;BME280;35340;52.378;4.648;2023-02-19T11:03:36;102513.63;;;17.69;62.42
48942;BME280;35340;52.378;4.648;2023-02-19T11:06:03;102517.06;;;17.68;62.48
48942;BME280;35340;52.378;4.648;2023-02-19T11:08:44;102520.56;;;17.70;62.31
48942;BME280;35340;52.378;4.648;2023-02-19T11:11:30;102524.06;;;17.71;62.27
48942;BME280;35340;52.378;4.648;2023-02-19T11:13:59;102523.16;;;17.68;62.36
48942;BME280;35340;52.378;4.648;2023-02-19T11:16:44;102522.25;;;17.68;62.10
48942;BME280;35340;52.378;4.648;2023-02-19T11:19:41;102523.16;;;17.68;62.38
48942;BME280;35340;52.378;4.648;2023-02-19T11:22:26;102531.84;;;17.69;62.32
48942;BME280;35340;52.378;4.648;2023-02-19T11:24:53;102537.03;;;17.69;62.21
48942;BME280;35340;52.378;4.648;2023-02-19T11:27:22;102535.31;;;17.69;62.17
48942;BME280;35340;52.378;4.648;2023-02-19T11:29:48;102532.72;;;17.69;62.25
48942;BME280;35340;52.378;4.648;2023-02-19T11:32:25;102541.38;;;17.70;61.95
48942;BME280;35340;52.378;4.648;2023-02-19T11:35:03;102539.66;;;17.69;61.98
48942;BME280;35340;52.378;4.648;2023-02-19T11:38:00;102544.81;;;17.67;62.10
48942;BME280;35340;52.378;4.648;2023-02-19T11:45:49;102525.75;;;17.70;61.75
48942;BME280;35340;52.378;4.648;2023-02-19T11:51:33;102537.13;;;17.74;62.05
48942;BME280;35340;52.378;4.648;2023-02-19T11:54:38;102548.41;;;17.74;61.78
48942;BME280;35340;52.378;4.648;2023-02-19T12:22:17;102575.38;;;17.78;61.57
48942;BME280;35340;52.378;4.648;2023-02-19T12:28:14;102582.25;;;17.74;61.14
48942;BME280;35340;52.378;4.648;2023-02-19T12:38:44;102572.63;;;17.68;61.05
48942;BME280;35340;52.378;4.648;2023-02-19T12:41:23;102578.66;;;17.67;61.19
48942;BME280;35340;52.378;4.648;2023-02-19T12:43:59;102590.84;;;17.68;61.17
48942;BME280;35340;52.378;4.648;2023-02-19T12:46:37;102602.13;;;17.69;61.03
48942;BME280;35340;52.378;4.648;2023-02-19T12:49:13;102613.47;;;17.71;60.88
48942;BME280;35340;52.378;4.648;2023-02-19T12:51:53;102616.94;;;17.72;60.82
48942;BME280;35340;52.378;4.648;2023-02-19T12:54:37;102629.09;;;17.71;61.27
48942;BME280;35340;52.378;4.648;2023-02-19T12:57:23;102631.69;;;17.71;60.85
48942;BME280;35340;52.378;4.648;2023-02-19T13:00:36;102636.03;;;17.71;60.86
48942;BME280;35340;52.378;4.648;2023-02-19T13:03:07;102625.66;;;17.74;60.89
48942;BME280;35340;52.378;4.648;2023-02-19T13:05:51;102612.66;;;17.77;60.56
48942;BME280;35340;52.378;4.648;2023-02-19T13:08:21;102602.34;;;17.80;60.48
48942;BME280;35340;52.378;4.648;2023-02-19T13:10:55;102605.03;;;17.84;60.26
48942;BME280;35340;52.378;4.648;2023-02-19T13:16:01;102622.53;;;17.90;60.17
48942;BME280;35340;52.378;4.648;2023-02-19T13:18:37;102625.16;;;17.93;60.07
48942;BME280;35340;52.378;4.648;2023-02-19T13:21:05;102632.13;;;17.94;60.10
48942;BME280;35340;52.378;4.648;2023-02-19T13:23:34;102644.34;;;17.97;60.02
48942;BME280;35340;52.378;4.648;2023-02-19T13:29:29;102657.38;;;17.98;60.03
48942;BME280;35340;52.378;4.648;2023-02-19T13:32:19;102660.00;;;18.00;59.94
48942;BME280;35340;52.378;4.648;2023-02-19T13:37:34;102654.00;;;18.04;59.73
48942;BME280;35340;52.378;4.648;2023-02-19T13:42:55;102650.53;;;18.05;59.77
48942;BME280;35340;52.378;4.648;2023-02-19T13:45:24;102655.75;;;18.05;59.65
48942;BME280;35340;52.378;4.648;2023-02-19T13:50:32;102661.03;;;18.08;59.50
48942;BME280;35340;52.378;4.648;2023-02-19T13:56:02;102654.94;;;18.09;59.32
48942;BME280;35340;52.378;4.648;2023-02-19T14:04:49;102672.25;;;18.04;59.61
48942;BME280;35340;52.378;4.648;2023-02-19T14:14:47;102646.13;;;17.99;59.32
48942;BME280;35340;52.378;4.648;2023-02-19T14:20:38;102626.09;;;17.98;58.96
48942;BME280;35340;52.378;4.648;2023-02-19T14:23:22;102636.53;;;17.98;58.84
48942;BME280;35340;52.378;4.648;2023-02-19T14:25:49;102635.66;;;17.98;58.87
48942;BME280;35340;52.378;4.648;2023-02-19T14:28:29;102631.31;;;17.97;58.87
48942;BME280;35340;52.378;4.648;2023-02-19T14:33:28;102622.59;;;17.96;58.87
48942;BME280;35340;52.378;4.648;2023-02-19T14:36:05;102621.72;;;17.96;58.84
48942;BME280;35340;52.378;4.648;2023-02-19T14:38:43;102616.50;;;17.94;58.83
48942;BME280;35340;52.378;4.648;2023-02-19T14:41:12;102613.00;;;17.94;58.76
48942;BME280;35340;52.378;4.648;2023-02-19T14:43:39;102623.47;;;17.95;58.91
48942;BME280;35340;52.378;4.648;2023-02-19T14:46:14;102626.06;;;17.95;58.77
48942;BME280;35340;52.378;4.648;2023-02-19T14:48:45;102620.84;;;17.95;58.77